createdAt,value
2023-05-03T00:00:17.793Z,98281.78
2023-05-03T00:03:06.819Z,98275.22
2023-05-03T00:05:53.874Z,98273.94
2023-05-03T00:08:40.827Z,98274.50
2023-05-03T00:11:27.740Z,98262.63
2023-05-03T00:14:14.594Z,98260.97
2023-05-03T00:17:01.578Z,98266.47
2023-05-03T00:19:48.602Z,98262.63
2023-05-03T00:22:35.533Z,98267.19
2023-05-03T00:25:22.453Z,98269.41
2023-05-03T00:28:09.371Z,98268.47
2023-05-03T00:30:56.370Z,98269.75
2023-05-03T00:33:43.330Z,98262.28
2023-05-03T00:36:31.049Z,98260.44
2023-05-03T00:39:17.903Z,98253.88
2023-05-03T00:42:04.763Z,98254.06
2023-05-03T00:44:53.320Z,98250.97
2023-05-03T00:47:41.045Z,98246.78
2023-05-03T00:50:28.441Z,98243.31
2023-05-03T00:53:16.202Z,98252.63
2023-05-03T00:56:05.861Z,98249.31
2023-05-03T00:58:52.871Z,98248.97
2023-05-03T01:01:39.901Z,98250.78
2023-05-03T01:04:27.071Z,98248.22
2023-05-03T01:07:47.503Z,98250.97
2023-05-03T01:11:14.655Z,98255.53
2023-05-03T01:14:09.996Z,98250.78
2023-05-03T01:17:02.158Z,98253.72
2023-05-03T01:19:53.294Z,98251.69
2023-05-03T01:22:58.151Z,98253.34
2023-05-03T01:25:45.009Z,98259.19
2023-05-03T01:28:34.588Z,98249.16
2023-05-03T01:31:50.770Z,98250.97
2023-05-03T01:34:40.203Z,98251.13
2023-05-03T01:37:28.108Z,98253.34
2023-05-03T01:40:19.740Z,98246.41
2023-05-03T01:43:07.820Z,98247.88
2023-05-03T01:45:54.834Z,98251.16
2023-05-03T01:48:41.748Z,98243.31
2023-05-03T01:51:28.621Z,98253.34
2023-05-03T01:54:16.285Z,98248.22
2023-05-03T01:57:03.621Z,98259.19
2023-05-03T01:59:50.490Z,98251.16
2023-05-03T02:02:37.421Z,98254.97
2023-05-03T02:05:24.307Z,98249.31
2023-05-03T02:08:11.194Z,98247.13
2023-05-03T02:10:58.241Z,98252.25
2023-05-03T02:13:45.884Z,98248.59
2023-05-03T02:16:32.806Z,98257.34
2023-05-03T02:19:19.659Z,98249.50
2023-05-03T02:22:06.594Z,98252.59
2023-05-03T02:24:53.416Z,98248.78
2023-05-03T02:27:40.688Z,98254.06
2023-05-03T02:30:28.623Z,98243.50
2023-05-03T02:33:15.517Z,98249.88
2023-05-03T02:36:02.357Z,98252.59
2023-05-03T02:38:49.198Z,98250.25
2023-05-03T02:41:36.056Z,98253.72
2023-05-03T02:44:22.942Z,98244.41
2023-05-03T02:47:10.555Z,98254.06
2023-05-03T02:49:57.425Z,98248.41
2023-05-03T02:52:44.444Z,98254.06
2023-05-03T02:55:31.764Z,98249.69
2023-05-03T02:58:18.735Z,98248.59
2023-05-03T03:01:05.857Z,98251.16
2023-05-03T03:03:52.830Z,98249.88
2023-05-03T03:06:39.870Z,98252.06
2023-05-03T03:09:26.738Z,98261.38
2023-05-03T03:12:13.668Z,98254.25
2023-05-03T03:15:00.554Z,98252.06
2023-05-03T03:17:47.557Z,98255.53
2023-05-03T03:20:34.533Z,98258.06
2023-05-03T03:23:21.402Z,98269.75
2023-05-03T03:26:08.290Z,98260.44
2023-05-03T03:28:55.259Z,98257.53
2023-05-03T03:31:42.148Z,98259.56
2023-05-03T03:34:29.101Z,98258.47
2023-05-03T03:37:16.009Z,98255.34
2023-05-03T03:40:03.266Z,98267.91
2023-05-03T03:42:50.355Z,98265.56
2023-05-03T03:45:37.210Z,98261.19
2023-05-03T03:48:24.109Z,98265.19
2023-05-03T03:51:11.496Z,98271.03
2023-05-03T03:53:58.399Z,98264.47
2023-05-03T03:56:45.308Z,98272.88
2023-05-03T03:59:32.240Z,98274.31
2023-05-03T04:02:19.101Z,98271.03
2023-05-03T04:05:06.640Z,98270.28
2023-05-03T04:07:53.490Z,98277.78
2023-05-03T04:10:40.380Z,98278.13
2023-05-03T04:13:27.290Z,98280.34
2023-05-03T04:16:14.142Z,98281.81
2023-05-03T04:19:01.602Z,98277.78
2023-05-03T04:21:48.499Z,98286.72
2023-05-03T04:24:35.888Z,98287.81
2023-05-03T04:27:23.198Z,98277.22
2023-05-03T04:30:12.464Z,98282.88
2023-05-03T04:32:59.515Z,98288.34
2023-05-03T04:35:51.061Z,98294.19
2023-05-03T04:38:38.648Z,98293.81
2023-05-03T04:41:25.935Z,98290.00
2023-05-03T04:44:14.382Z,98302.97
2023-05-03T04:47:01.702Z,98305.13
2023-05-03T04:49:48.635Z,98306.22
2023-05-03T04:52:35.718Z,98307.13
2023-05-03T04:55:22.575Z,98314.41
2023-05-03T04:58:09.599Z,98318.78
2023-05-03T05:00:56.495Z,98314.41
2023-05-03T05:03:43.440Z,98312.78
2023-05-03T05:06:31.432Z,98312.06
2023-05-03T05:09:27.162Z,98315.72
2023-05-03T05:12:14.082Z,98321.19
2023-05-03T05:15:00.910Z,98320.63
2023-05-03T05:17:47.830Z,98326.66
2023-05-03T05:20:35.210Z,98328.66
2023-05-03T05:23:22.034Z,98333.22
2023-05-03T05:26:08.906Z,98339.06
2023-05-03T05:28:55.942Z,98342.56
2023-05-03T05:31:42.776Z,98345.09
2023-05-03T05:34:32.326Z,98339.63
2023-05-03T05:37:24.594Z,98346.38
2023-05-03T05:40:12.446Z,98350.41
2023-05-03T05:42:59.339Z,98343.09
2023-05-03T05:45:46.194Z,98348.56
2023-05-03T05:48:33.062Z,98341.84
2023-05-03T05:51:20.243Z,98342.00
2023-05-03T05:54:08.028Z,98352.22
2023-05-03T05:56:55.084Z,98356.59
2023-05-03T05:59:42.081Z,98351.28
2023-05-03T06:02:29.424Z,98353.16
2023-05-03T06:05:16.628Z,98362.25
2023-05-03T06:08:04.131Z,98358.25
2023-05-03T06:10:53.124Z,98358.25
2023-05-03T06:13:41.066Z,98364.81
2023-05-03T06:16:27.975Z,98366.47
2023-05-03T06:19:14.834Z,98365.91
2023-05-03T06:22:02.102Z,98365.38
2023-05-03T06:24:48.938Z,98369.56
2023-05-03T06:27:36.680Z,98375.25
2023-05-03T06:30:27.345Z,98368.47
2023-05-03T06:33:14.956Z,98368.84
2023-05-03T06:36:01.789Z,98373.91
2023-05-03T06:38:48.627Z,98378.50
2023-05-03T06:41:35.553Z,98376.28
2023-05-03T06:44:22.522Z,98381.41
2023-05-03T06:47:09.478Z,98385.81
2023-05-03T06:49:56.383Z,98386.00
2023-05-03T06:52:43.201Z,98388.00
2023-05-03T06:55:30.158Z,98389.81
2023-05-03T06:58:17.334Z,98388.19
2023-05-03T07:01:05.081Z,98386.00
2023-05-03T07:03:52.123Z,98388.19
2023-05-03T07:06:52.520Z,98397.31
2023-05-03T07:09:43.656Z,98389.66
2023-05-03T07:12:31.017Z,98391.81
2023-05-03T07:15:17.835Z,98393.84
2023-05-03T07:18:04.748Z,98393.09
2023-05-03T07:20:51.630Z,98388.91
2023-05-03T07:23:38.643Z,98378.50
2023-05-03T07:26:26.551Z,98386.72
2023-05-03T07:29:13.428Z,98385.41
2023-05-03T07:32:00.499Z,98383.59
2023-05-03T07:34:47.378Z,98386.31
2023-05-03T07:37:34.225Z,98388.50
2023-05-03T07:40:21.099Z,98391.59
2023-05-03T07:43:10.292Z,98390.16
2023-05-03T07:45:57.188Z,98388.31
2023-05-03T07:48:44.109Z,98383.88
2023-05-03T07:51:35.952Z,98390.09
2023-05-03T07:54:22.779Z,98377.25
2023-05-03T07:57:09.680Z,98378.28
2023-05-03T07:59:56.948Z,98384.28
2023-05-03T08:02:44.146Z,98375.50
2023-05-03T08:05:31.114Z,98386.22
2023-05-03T08:08:18.790Z,98379.91
2023-05-03T08:11:05.625Z,98380.78
2023-05-03T08:13:52.718Z,98384.72
2023-05-03T08:16:40.000Z,98389.03
2023-05-03T08:19:27.011Z,98383.28
2023-05-03T08:22:14.882Z,98381.88
2023-05-03T08:25:01.828Z,98393.63
2023-05-03T08:27:49.304Z,98393.50
2023-05-03T08:30:37.016Z,98394.91
2023-05-03T08:33:23.871Z,98396.94
2023-05-03T08:36:10.811Z,98398.41
2023-05-03T08:38:57.625Z,98399.88
2023-05-03T08:41:44.963Z,98389.78
2023-05-03T08:44:36.512Z,98394.50
2023-05-03T08:47:24.211Z,98395.09
2023-05-03T08:50:12.965Z,98409.13
2023-05-03T08:53:00.391Z,98406.16
2023-05-03T08:55:47.271Z,98409.44
2023-05-03T08:58:36.112Z,98413.63
2023-05-03T09:01:23.028Z,98413.38
2023-05-03T09:04:11.752Z,98411.34
2023-05-03T09:07:12.056Z,98409.13
2023-05-03T09:10:00.421Z,98402.13
2023-05-03T09:12:47.251Z,98408.47
2023-05-03T09:15:34.847Z,98408.50
2023-05-03T09:18:22.723Z,98410.44
2023-05-03T09:21:19.426Z,98404.38
2023-05-03T09:24:17.592Z,98407.31
2023-05-03T09:27:18.681Z,98407.56
2023-05-03T09:30:19.486Z,98411.06
2023-05-03T09:33:06.499Z,98414.59
2023-05-03T09:36:01.917Z,98416.41
2023-05-03T09:38:49.618Z,98416.59
2023-05-03T09:41:36.486Z,98401.31
2023-05-03T09:44:43.269Z,98407.31
2023-05-03T09:47:32.078Z,98399.50
2023-05-03T09:50:19.431Z,98402.16
2023-05-03T09:53:07.451Z,98396.72
2023-05-03T09:55:56.060Z,98404.25
2023-05-03T09:58:43.836Z,98407.28
2023-05-03T10:01:31.974Z,98403.88
2023-05-03T10:04:22.052Z,98395.22
2023-05-03T10:07:13.450Z,98393.53
2023-05-03T10:10:00.685Z,98403.06
2023-05-03T10:12:48.344Z,98396.75
2023-05-03T10:15:37.492Z,98399.19
2023-05-03T10:18:27.822Z,98392.97
2023-05-03T10:21:24.522Z,98393.34
2023-05-03T10:24:13.293Z,98390.44
2023-05-03T10:27:00.447Z,98384.72
2023-05-03T10:29:51.623Z,98384.63
2023-05-03T10:32:43.341Z,98387.13
2023-05-03T10:35:30.446Z,98383.50
2023-05-03T10:38:20.962Z,98380.81
2023-05-03T10:41:07.903Z,98377.63
2023-05-03T10:43:54.760Z,98379.84
2023-05-03T10:46:43.875Z,98378.94
2023-05-03T10:49:30.734Z,98376.59
2023-05-03T10:52:36.051Z,98379.94
2023-05-03T10:55:24.912Z,98374.22
2023-05-03T10:58:14.466Z,98369.56
2023-05-03T11:01:04.203Z,98370.59
2023-05-03T11:04:16.560Z,98371.41
2023-05-03T11:07:04.532Z,98375.34
2023-05-03T11:09:52.216Z,98371.50
2023-05-03T11:12:39.060Z,98366.97
2023-05-03T11:15:25.973Z,98368.56
2023-05-03T11:18:12.997Z,98369.19
2023-05-03T11:20:59.965Z,98369.28
2023-05-03T11:23:47.142Z,98364.28
2023-05-03T11:26:38.544Z,98366.19
2023-05-03T11:29:26.211Z,98360.91
2023-05-03T11:32:16.140Z,98356.25
2023-05-03T11:35:05.743Z,98356.59
2023-05-03T11:37:56.866Z,98358.03
2023-05-03T11:40:43.688Z,98360.34
2023-05-03T11:43:30.571Z,98356.81
2023-05-03T11:46:23.914Z,98347.03
2023-05-03T11:49:17.370Z,98354.38
2023-05-03T11:52:04.500Z,98360.13
2023-05-03T11:54:51.952Z,98355.41
2023-05-03T11:57:39.300Z,98346.72
2023-05-03T12:00:26.602Z,98349.34
2023-05-03T12:03:21.908Z,98351.56
2023-05-03T12:06:10.329Z,98356.28
2023-05-03T12:08:58.043Z,98353.72
2023-05-03T12:11:48.153Z,98353.44
2023-05-03T12:14:59.318Z,98348.41
2023-05-03T12:17:49.913Z,98351.28
2023-05-03T12:23:29.288Z,98344.97
2023-05-03T12:26:19.165Z,98342.50
2023-05-03T12:29:06.851Z,98341.06
2023-05-03T12:31:53.877Z,98339.44
2023-05-03T12:34:42.486Z,98338.00
2023-05-03T12:37:33.289Z,98331.09
2023-05-03T12:40:33.588Z,98328.22
2023-05-03T12:43:21.821Z,98333.72
2023-05-03T12:46:32.227Z,98338.44
2023-05-03T12:49:16.311Z,98328.34
2023-05-03T12:54:55.540Z,98326.38
2023-05-03T12:57:45.840Z,98329.00
2023-05-03T13:00:36.117Z,98317.41
2023-05-03T13:03:31.954Z,98315.53
2023-05-03T13:06:20.695Z,98309.00
2023-05-03T13:09:07.955Z,98310.44
2023-05-03T13:11:55.260Z,98310.00
2023-05-03T13:14:42.890Z,98306.09
2023-05-03T13:17:31.161Z,98302.03
2023-05-03T13:20:20.290Z,98303.34
2023-05-03T13:23:07.471Z,98298.84
2023-05-03T13:25:57.262Z,98298.50
2023-05-03T13:28:44.116Z,98295.78
2023-05-03T13:31:31.064Z,98290.88
2023-05-03T13:34:17.943Z,98285.63
2023-05-03T13:37:04.889Z,98285.53
2023-05-03T13:39:52.016Z,98286.81
2023-05-03T13:42:38.943Z,98277.53
2023-05-03T13:45:25.820Z,98278.69
2023-05-03T13:48:18.979Z,98272.16
2023-05-03T13:51:10.636Z,98273.03
2023-05-03T13:54:02.024Z,98272.59
2023-05-03T13:56:49.153Z,98263.03
2023-05-03T13:59:37.420Z,98260.69
2023-05-03T14:02:24.283Z,98257.06
2023-05-03T14:05:11.462Z,98263.47
2023-05-03T14:07:58.388Z,98259.25
2023-05-03T14:10:45.446Z,98262.03
2023-05-03T14:13:43.644Z,98254.91
2023-05-03T14:16:41.572Z,98257.09
2023-05-03T14:19:29.393Z,98257.53
2023-05-03T14:22:16.240Z,98267.69
2023-05-03T14:25:03.811Z,98258.69
2023-05-03T14:27:50.663Z,98263.63
2023-05-03T14:30:37.491Z,98268.69
2023-05-03T14:33:24.366Z,98263.94
2023-05-03T14:36:11.595Z,98267.41
2023-05-03T14:38:58.577Z,98265.22
2023-05-03T14:41:45.661Z,98266.53
2023-05-03T14:44:32.525Z,98264.59
2023-05-03T14:47:19.362Z,98268.56
2023-05-03T14:50:07.002Z,98268.56
2023-05-03T14:52:54.160Z,98274.06
2023-05-03T14:55:41.452Z,98266.50
2023-05-03T14:58:28.445Z,98268.13
2023-05-03T15:01:19.650Z,98271.00
2023-05-03T15:04:10.563Z,98275.22
2023-05-03T15:07:02.673Z,98272.19
2023-05-03T15:09:49.558Z,98270.72
2023-05-03T15:12:36.422Z,98266.69
2023-05-03T15:15:23.382Z,98269.00
2023-05-03T15:18:11.163Z,98269.00
2023-05-03T15:20:58.318Z,98274.66
2023-05-03T15:23:45.879Z,98269.00
2023-05-03T15:26:32.707Z,98269.00
2023-05-03T15:29:19.817Z,98268.53
2023-05-03T15:32:06.682Z,98265.19
2023-05-03T15:34:53.590Z,98265.78
2023-05-03T15:37:40.508Z,98261.16
2023-05-03T15:40:27.433Z,98257.06
2023-05-03T15:43:14.252Z,98261.41
2023-05-03T15:46:02.208Z,98259.09
2023-05-03T15:48:49.148Z,98256.34
2023-05-03T15:51:37.041Z,98261.28
2023-05-03T15:54:23.940Z,98267.22
2023-05-03T15:57:10.960Z,98267.34
2023-05-03T15:59:57.940Z,98264.16
2023-05-03T16:02:44.917Z,98262.88
2023-05-03T16:05:32.106Z,98261.41
2023-05-03T16:08:22.056Z,98264.31
2023-05-03T16:11:08.899Z,98259.94
2023-05-03T16:13:55.774Z,98266.03
2023-05-03T16:16:43.854Z,98261.25
2023-05-03T16:19:32.045Z,98261.25
2023-05-03T16:22:19.097Z,98260.66
2023-05-03T16:25:12.405Z,98256.03
2023-05-03T16:27:59.567Z,98252.69
2023-05-03T16:30:46.489Z,98249.19
2023-05-03T16:33:33.332Z,98247.44
2023-05-03T16:36:20.259Z,98247.25
2023-05-03T16:39:07.913Z,98247.25
2023-05-03T16:41:54.776Z,98247.41
2023-05-03T16:44:41.691Z,98247.25
2023-05-03T16:47:28.663Z,98242.03
2023-05-03T16:50:17.039Z,98243.31
2023-05-03T16:53:04.106Z,98251.28
2023-05-03T16:55:51.772Z,98243.41
2023-05-03T16:58:38.710Z,98249.06
2023-05-03T17:01:25.794Z,98244.13
2023-05-03T17:04:12.837Z,98247.72
2023-05-03T17:06:59.657Z,98242.31
2023-05-03T17:09:46.536Z,98240.47
2023-05-03T17:12:33.389Z,98245.97
2023-05-03T17:15:20.453Z,98248.72
2023-05-03T17:18:08.576Z,98246.94
2023-05-03T17:21:01.218Z,98240.69
2023-05-03T17:23:48.159Z,98244.41
2023-05-03T17:26:35.511Z,98251.31
2023-05-03T17:29:22.495Z,98247.53
2023-05-03T17:32:09.359Z,98254.88
2023-05-03T17:34:57.745Z,98258.63
2023-05-03T17:37:45.246Z,98250.06
2023-05-03T17:40:35.176Z,98251.31
2023-05-03T17:43:22.385Z,98251.84
2023-05-03T17:46:11.454Z,98254.78
2023-05-03T17:48:59.165Z,98261.81
2023-05-03T17:51:46.047Z,98254.59
2023-05-03T17:54:32.958Z,98259.63
2023-05-03T17:57:23.164Z,98265.28
2023-05-03T18:00:15.140Z,98264.56
2023-05-03T18:03:03.174Z,98268.13
2023-05-03T18:05:50.159Z,98263.19
2023-05-03T18:08:37.173Z,98262.41
2023-05-03T18:11:24.023Z,98269.34
2023-05-03T18:14:11.856Z,98273.09
2023-05-03T18:16:58.762Z,98266.91
2023-05-03T18:19:45.931Z,98266.59
2023-05-03T18:22:32.833Z,98266.47
2023-05-03T18:25:19.715Z,98271.47
2023-05-03T18:28:06.600Z,98274.84
2023-05-03T18:30:55.663Z,98272.66
2023-05-03T18:33:42.872Z,98273.06
2023-05-03T18:36:29.848Z,98276.94
2023-05-03T18:39:17.269Z,98283.44
2023-05-03T18:42:04.457Z,98279.22
2023-05-03T18:44:52.050Z,98279.84
2023-05-03T18:47:39.067Z,98281.78
2023-05-03T18:50:26.271Z,98284.56
2023-05-03T18:53:23.070Z,98287.25
2023-05-03T18:56:12.497Z,98289.31
2023-05-03T18:58:59.648Z,98294.13
2023-05-03T19:01:46.708Z,98301.13
2023-05-03T19:04:33.940Z,98301.50
2023-05-03T19:07:28.863Z,98299.53
2023-05-03T19:10:16.142Z,98309.97
2023-05-03T19:13:03.250Z,98302.38
2023-05-03T19:15:50.190Z,98301.50
2023-05-03T19:18:37.559Z,98304.06
2023-05-03T19:21:24.521Z,98301.56
2023-05-03T19:24:14.063Z,98310.53
2023-05-03T19:27:00.888Z,98315.63
2023-05-03T19:29:48.393Z,98310.53
2023-05-03T19:32:38.914Z,98311.41
2023-05-03T19:35:26.055Z,98314.75
2023-05-03T19:38:13.687Z,98319.31
2023-05-03T19:41:00.931Z,98324.44
2023-05-03T19:43:47.841Z,98314.97
2023-05-03T19:46:34.859Z,98312.06
2023-05-03T19:49:23.884Z,98312.06
2023-05-03T19:52:11.214Z,98314.63
2023-05-03T19:54:58.046Z,98312.06
2023-05-03T19:57:45.020Z,98310.97
2023-05-03T20:00:33.908Z,98315.72
2023-05-03T20:03:22.976Z,98321.91
2023-05-03T20:06:09.961Z,98320.28
2023-05-03T20:08:56.851Z,98314.25
2023-05-03T20:11:43.767Z,98318.63
2023-05-03T20:14:30.656Z,98312.09
2023-05-03T20:17:17.541Z,98312.97
2023-05-03T20:20:11.200Z,98324.13
2023-05-03T20:22:58.019Z,98313.53
2023-05-03T20:25:44.860Z,98320.84
2023-05-03T20:28:32.628Z,98316.81
2023-05-03T20:31:19.525Z,98308.44
2023-05-03T20:34:06.495Z,98310.25
2023-05-03T20:36:53.372Z,98307.50
2023-05-03T20:39:40.270Z,98308.97
2023-05-03T20:42:27.185Z,98307.50
2023-05-03T20:45:14.083Z,98314.41
2023-05-03T20:48:01.008Z,98309.50
2023-05-03T20:50:49.891Z,98315.47
2023-05-03T20:53:36.901Z,98324.22
2023-05-03T20:56:23.769Z,98323.28
2023-05-03T20:59:11.006Z,98318.69
2023-05-03T21:01:57.870Z,98326.16
2023-05-03T21:04:44.782Z,98317.00
2023-05-03T21:07:31.618Z,98318.28
2023-05-03T21:10:18.704Z,98318.81
2023-05-03T21:13:05.584Z,98320.75
2023-05-03T21:15:52.491Z,98315.50
2023-05-03T21:18:39.426Z,98317.69
2023-05-03T21:21:27.103Z,98319.28
2023-05-03T21:24:13.975Z,98321.28
2023-05-03T21:27:01.045Z,98315.28
2023-05-03T21:29:48.686Z,98317.84
2023-05-03T21:32:35.939Z,98324.63
2023-05-03T21:35:22.799Z,98323.84
2023-05-03T21:38:09.699Z,98323.94
2023-05-03T21:41:04.862Z,98323.38
2023-05-03T21:43:51.788Z,98321.53
2023-05-03T21:46:41.481Z,98319.63
2023-05-03T21:49:28.429Z,98327.41
2023-05-03T21:52:15.293Z,98318.50
2023-05-03T21:55:02.418Z,98312.84
2023-05-03T21:57:49.596Z,98323.03
2023-05-03T22:00:36.448Z,98322.63
2023-05-03T22:03:23.364Z,98312.28
2023-05-03T22:06:10.845Z,98311.50
2023-05-03T22:08:58.176Z,98311.19
2023-05-03T22:11:45.052Z,98311.47
2023-05-03T22:14:31.963Z,98318.41
2023-05-03T22:17:19.006Z,98314.34
2023-05-03T22:20:07.041Z,98314.69
2023-05-03T22:22:54.435Z,98310.81
2023-05-03T22:25:41.357Z,98310.81
2023-05-03T22:28:28.284Z,98306.91
2023-05-03T22:31:15.147Z,98311.22
2023-05-03T22:34:02.080Z,98311.97
2023-05-03T22:36:49.158Z,98306.44
2023-05-03T22:39:36.055Z,98308.63
2023-05-03T22:42:22.888Z,98308.97
2023-05-03T22:45:10.433Z,98307.97
2023-05-03T22:47:57.314Z,98300.84
2023-05-03T22:50:44.223Z,98305.59
2023-05-03T22:53:31.069Z,98303.00
2023-05-03T22:56:17.912Z,98305.41
2023-05-03T22:59:04.993Z,98300.81
2023-05-03T23:01:51.892Z,98298.41
2023-05-03T23:04:39.006Z,98301.69
2023-05-03T23:07:26.800Z,98300.63
2023-05-03T23:10:13.762Z,98295.69
2023-05-03T23:13:00.687Z,98305.13
2023-05-03T23:15:47.531Z,98299.41
2023-05-03T23:18:34.454Z,98300.28
2023-05-03T23:21:21.395Z,98302.78
2023-05-03T23:24:08.375Z,98289.25
2023-05-03T23:26:55.219Z,98293.94
2023-05-03T23:29:43.114Z,98295.75
2023-05-03T23:32:30.563Z,98299.16
2023-05-03T23:35:18.051Z,98291.41
2023-05-03T23:38:05.106Z,98290.69
2023-05-03T23:40:52.010Z,98287.03
2023-05-03T23:43:38.842Z,98283.56
2023-05-03T23:46:25.812Z,98280.72
2023-05-03T23:49:12.680Z,98274.66
2023-05-03T23:51:59.705Z,98279.50
2023-05-03T23:54:46.647Z,98275.53
2023-05-03T23:57:33.650Z,98270.19
